Bw Helium — MBAG6 — position and weather

sailwx.info

Track history (hours):
 
Tides and Currents Weather Stations Pressure Air Temp Water Temp Dewpoint Dewpoint Depression Visibility Wind Speed Wind Dir Waves Ship Positions

Bw Helium

Last reported at 2018-Jun-16 00:50 UTC. Time now 2018-Jun-23 10:00 UTC.
Position N 30°58' E 032°19'.

Length 147 m; draft 9.4 m.

Type: Ship (hazmat cat D). MMSI: 232008019.

Date/timePositionNaut miles runAvg speedWind from/ knotsBaromVisibWave heightAir tempDewpointWater temp
2018-Jun-16 00:50N 30°58' E 032°19'3 9.8
2018-Jun-16 00:30N 31°02' E 032°19'510.0
2018-Jun-16 00:00N 31°07' E 032°19'510.3
2018-Jun-15 23:30N 31°11' E 032°20'3 6.1
2018-Jun-15 23:00N 31°14' E 032°21'3 6.3
2018-Jun-15 22:30N 31°18' E 032°22'5 9.4
2018-Jun-15 22:00N 31°22' E 032°22'2 2.7
2018-Jun-15 21:19N 31°22' E 032°20'1 2.4
2018-Jun-15 20:54N 31°22' E 032°19'0 0.0
2018-Jun-15 20:30N 31°22' E 032°19'0 0.0
2018-Jun-15 19:48N 31°22' E 032°19'0 0.1
2018-Jun-15 19:30N 31°22' E 032°19'0 0.0
2018-Jun-15 19:00N 31°22' E 032°19'0 0.0
2018-Jun-15 17:03N 31°21' E 032°19'0 0.1
2018-Jun-15 16:51N 31°21' E 032°19'0 0.0
2018-Jun-15 16:21N 31°21' E 032°19'0 0.1
2018-Jun-15 15:54N 31°22' E 032°19'1 2.2
2018-Jun-15 15:30N 31°22' E 032°18'4 8.0
2018-Jun-15 14:56N 31°26' E 032°17'511.9
2018-Jun-15 14:30N 31°30' E 032°13'1913.0
2018-Jun-15 13:03N 31°44' E 031°58'113.2
2018-Jun-15 13:00N 31°44' E 031°57'713.3
2018-Jun-15 12:26N 31°48' E 031°49'613.2
2018-Jun-15 12:00N 31°49' E 031°43'913.3
2018-Jun-15 11:21N 31°52' E 031°33'  
2018-Jun-12 15:20N 35°54' E 014°47'0 0.0
2018-Jun-12 14:59N 35°54' E 014°47'0 0.0
2018-Jun-12 14:29N 35°54' E 014°47'0 0.0
2018-Jun-12 13:59N 35°54' E 014°47'0 0.0
2018-Jun-12 13:29N 35°54' E 014°47'0 0.0
2018-Jun-12 12:59N 35°54' E 014°47'0 0.0
2018-Jun-12 12:29N 35°54' E 014°47'0 0.0
2018-Jun-12 11:59N 35°54' E 014°47'0 0.0
2018-Jun-12 11:29N 35°54' E 014°47'0 0.2
2018-Jun-12 10:59N 35°54' E 014°47'3 5.1
2018-Jun-12 10:30N 35°55' E 014°45'611.6
2018-Jun-12 10:00N 35°59' E 014°40'714.1
2018-Jun-12 09:30N 36°04' E 014°33'714.2
2018-Jun-12 09:01N 36°09' E 014°27'714.4
2018-Jun-12 08:30N 36°13' E 014°20'714.4
2018-Jun-12 08:00N 36°18' E 014°13'714.6
2018-Jun-12 07:30N 36°22' E 014°06'714.5
2018-Jun-12 07:00N 36°27' E 013°58'914.8
2018-Jun-12 06:25N 36°32' E 013°50'614.9
2018-Jun-12 06:00N 36°36' E 013°44'714.7
2018-Jun-12 05:30N 36°40' E 013°37'714.3
2018-Jun-12 05:00N 36°45' E 013°30'714.3
2018-Jun-12 04:30N 36°50' E 013°23'714.3
2018-Jun-12 04:00N 36°54' E 013°16'714.2
2018-Jun-12 03:30N 36°59' E 013°09'56114.4
2018-Jun-10 12:42N 40°46' E 002°11'414.0
2018-Jun-10 12:25N 40°47' E 002°07'613.8
2018-Jun-10 12:00N 40°50' E 001°59'1214.2
2018-Jun-10 11:09N 40°54' E 001°45'214.3
2018-Jun-10 11:00N 40°55' E 001°42'1214.3
2018-Jun-10 10:10N 40°60' E 001°27'214.2
2018-Jun-10 10:00N 41°00' E 001°25'115 3.3
2018-Jun-08 22:39N 39°10' E 000°40'214.7
2018-Jun-08 22:30N 39°08' E 000°40'1314.7
2018-Jun-08 21:36N 38°55' E 000°36'114.6
2018-Jun-08 21:30N 38°54' E 000°36'714.4
2018-Jun-08 21:00N 38°47' E 000°33'714.5
2018-Jun-08 20:30N 38°41' E 000°28'714.3
2018-Jun-08 20:00N 38°35' E 000°23'1714.5
2018-Jun-08 18:49N 38°21' E 000°10'514.5
2018-Jun-08 18:30N 38°17' E 000°07'814.6
2018-Jun-08 17:59N 38°11' E 000°02'714.5
2018-Jun-08 17:30N 38°05' W 000°03'714.3
2018-Jun-08 17:00N 37°59' W 000°08'714.3
2018-Jun-08 16:30N 37°53' W 000°13'714.5
2018-Jun-08 16:00N 37°47' W 000°18'714.6
2018-Jun-08 15:31N 37°41' W 000°23'714.8
2018-Jun-08 15:01N 37°35' W 000°28'714.1
2018-Jun-08 14:30N 37°31' W 000°36'815.5
2018-Jun-08 14:00N 37°31' W 000°46'714.3
2018-Jun-08 13:30N 37°32' W 000°55'4 0.2
2018-Jun-07 10:39N 37°34' W 000°59'2 6.2
2018-Jun-07 10:15N 37°34' W 001°02'2 0.3
2018-Jun-07 02:31N 37°33' W 001°05'0 0.0
2018-Jun-07 02:19N 37°33' W 001°05'0 0.0
2018-Jun-07 00:49N 37°33' W 001°05'0 0.0
2018-Jun-06 19:49N 37°33' W 001°05'0 0.2
2018-Jun-06 19:25N 37°33' W 001°05'0 0.0
2018-Jun-06 18:55N 37°33' W 001°05'0 0.1
2018-Jun-06 18:25N 37°33' W 001°05'0 0.0
2018-Jun-06 12:19N 37°33' W 001°05'0 0.0
2018-Jun-06 11:49N 37°33' W 001°05'0 0.0
2018-Jun-06 11:25N 37°33' W 001°05'0 0.0
2018-Jun-06 10:55N 37°33' W 001°05'0 0.0
2018-Jun-06 10:25N 37°33' W 001°05'0 0.0
2018-Jun-06 09:55N 37°33' W 001°05'0 0.0
2018-Jun-06 07:13N 37°33' W 001°05'0 0.1
2018-Jun-06 06:55N 37°33' W 001°05'0 0.0
2018-Jun-06 06:19N 37°33' W 001°05'0 0.0
2018-Jun-06 05:37N 37°33' W 001°05'0 0.0
2018-Jun-06 05:25N 37°33' W 001°05'0 0.0
2018-Jun-06 03:43N 37°33' W 001°05'0 0.1
2018-Jun-06 03:19N 37°33' W 001°05'0 0.0
2018-Jun-06 02:55N 37°33' W 001°05'0 0.0
2018-Jun-06 02:25N 37°33' W 001°05'0 0.0
2018-Jun-06 01:55N 37°33' W 001°05'  
Track history (hours):
 
Tides and Currents Weather Stations Pressure Air Temp Water Temp Dewpoint Dewpoint Depression Visibility Wind Speed Wind Dir Waves Ship Positions

Bw Helium

Last reported at 2018-Jun-16 00:50 UTC. Time now 2018-Jun-23 10:00 UTC.
Position N 30°58' E 032°19'.

Length 147 m; draft 9.4 m.

Type: Ship (hazmat cat D). MMSI: 232008019.

Date/timePositionNaut miles runAvg speedWind from/ knotsBaromVisibWave heightAir tempDewpointWater temp
2018-Jun-16 00:50N 30°58' E 032°19'3 9.8
2018-Jun-16 00:30N 31°02' E 032°19'510.0
2018-Jun-16 00:00N 31°07' E 032°19'510.3
2018-Jun-15 23:30N 31°11' E 032°20'3 6.1
2018-Jun-15 23:00N 31°14' E 032°21'3 6.3
2018-Jun-15 22:30N 31°18' E 032°22'5 9.4
2018-Jun-15 22:00N 31°22' E 032°22'2 2.7
2018-Jun-15 21:19N 31°22' E 032°20'1 2.4
2018-Jun-15 20:54N 31°22' E 032°19'0 0.0
2018-Jun-15 20:30N 31°22' E 032°19'0 0.0
2018-Jun-15 19:48N 31°22' E 032°19'0 0.1
2018-Jun-15 19:30N 31°22' E 032°19'0 0.0
2018-Jun-15 19:00N 31°22' E 032°19'0 0.0
2018-Jun-15 17:03N 31°21' E 032°19'0 0.1
2018-Jun-15 16:51N 31°21' E 032°19'0 0.0
2018-Jun-15 16:21N 31°21' E 032°19'0 0.1
2018-Jun-15 15:54N 31°22' E 032°19'1 2.2
2018-Jun-15 15:30N 31°22' E 032°18'4 8.0
2018-Jun-15 14:56N 31°26' E 032°17'511.9
2018-Jun-15 14:30N 31°30' E 032°13'1913.0
2018-Jun-15 13:03N 31°44' E 031°58'113.2
2018-Jun-15 13:00N 31°44' E 031°57'713.3
2018-Jun-15 12:26N 31°48' E 031°49'613.2
2018-Jun-15 12:00N 31°49' E 031°43'913.3
2018-Jun-15 11:21N 31°52' E 031°33'  
2018-Jun-12 15:20N 35°54' E 014°47'0 0.0
2018-Jun-12 14:59N 35°54' E 014°47'0 0.0
2018-Jun-12 14:29N 35°54' E 014°47'0 0.0
2018-Jun-12 13:59N 35°54' E 014°47'0 0.0
2018-Jun-12 13:29N 35°54' E 014°47'0 0.0
2018-Jun-12 12:59N 35°54' E 014°47'0 0.0
2018-Jun-12 12:29N 35°54' E 014°47'0 0.0
2018-Jun-12 11:59N 35°54' E 014°47'0 0.0
2018-Jun-12 11:29N 35°54' E 014°47'0 0.2
2018-Jun-12 10:59N 35°54' E 014°47'3 5.1
2018-Jun-12 10:30N 35°55' E 014°45'611.6
2018-Jun-12 10:00N 35°59' E 014°40'714.1
2018-Jun-12 09:30N 36°04' E 014°33'714.2
2018-Jun-12 09:01N 36°09' E 014°27'714.4
2018-Jun-12 08:30N 36°13' E 014°20'714.4
2018-Jun-12 08:00N 36°18' E 014°13'714.6
2018-Jun-12 07:30N 36°22' E 014°06'714.5
2018-Jun-12 07:00N 36°27' E 013°58'914.8
2018-Jun-12 06:25N 36°32' E 013°50'614.9
2018-Jun-12 06:00N 36°36' E 013°44'714.7
2018-Jun-12 05:30N 36°40' E 013°37'714.3
2018-Jun-12 05:00N 36°45' E 013°30'714.3
2018-Jun-12 04:30N 36°50' E 013°23'714.3
2018-Jun-12 04:00N 36°54' E 013°16'714.2
2018-Jun-12 03:30N 36°59' E 013°09'56114.4
2018-Jun-10 12:42N 40°46' E 002°11'414.0
2018-Jun-10 12:25N 40°47' E 002°07'613.8
2018-Jun-10 12:00N 40°50' E 001°59'1214.2
2018-Jun-10 11:09N 40°54' E 001°45'214.3
2018-Jun-10 11:00N 40°55' E 001°42'1214.3
2018-Jun-10 10:10N 40°60' E 001°27'214.2
2018-Jun-10 10:00N 41°00' E 001°25'115 3.3
2018-Jun-08 22:39N 39°10' E 000°40'214.7
2018-Jun-08 22:30N 39°08' E 000°40'1314.7
2018-Jun-08 21:36N 38°55' E 000°36'114.6
2018-Jun-08 21:30N 38°54' E 000°36'714.4
2018-Jun-08 21:00N 38°47' E 000°33'714.5
2018-Jun-08 20:30N 38°41' E 000°28'714.3
2018-Jun-08 20:00N 38°35' E 000°23'1714.5
2018-Jun-08 18:49N 38°21' E 000°10'514.5
2018-Jun-08 18:30N 38°17' E 000°07'814.6
2018-Jun-08 17:59N 38°11' E 000°02'714.5
2018-Jun-08 17:30N 38°05' W 000°03'714.3
2018-Jun-08 17:00N 37°59' W 000°08'714.3
2018-Jun-08 16:30N 37°53' W 000°13'714.5
2018-Jun-08 16:00N 37°47' W 000°18'714.6
2018-Jun-08 15:31N 37°41' W 000°23'714.8
2018-Jun-08 15:01N 37°35' W 000°28'714.1
2018-Jun-08 14:30N 37°31' W 000°36'815.5
2018-Jun-08 14:00N 37°31' W 000°46'714.3
2018-Jun-08 13:30N 37°32' W 000°55'4 0.2
2018-Jun-07 10:39N 37°34' W 000°59'2 6.2
2018-Jun-07 10:15N 37°34' W 001°02'2 0.3
2018-Jun-07 02:31N 37°33' W 001°05'0 0.0
2018-Jun-07 02:19N 37°33' W 001°05'0 0.0
2018-Jun-07 00:49N 37°33' W 001°05'0 0.0
2018-Jun-06 19:49N 37°33' W 001°05'0 0.2
2018-Jun-06 19:25N 37°33' W 001°05'0 0.0
2018-Jun-06 18:55N 37°33' W 001°05'0 0.1
2018-Jun-06 18:25N 37°33' W 001°05'0 0.0
2018-Jun-06 12:19N 37°33' W 001°05'0 0.0
2018-Jun-06 11:49N 37°33' W 001°05'0 0.0
2018-Jun-06 11:25N 37°33' W 001°05'0 0.0
2018-Jun-06 10:55N 37°33' W 001°05'0 0.0
2018-Jun-06 10:25N 37°33' W 001°05'0 0.0
2018-Jun-06 09:55N 37°33' W 001°05'0 0.0
2018-Jun-06 07:13N 37°33' W 001°05'0 0.1
2018-Jun-06 06:55N 37°33' W 001°05'0 0.0
2018-Jun-06 06:19N 37°33' W 001°05'0 0.0
2018-Jun-06 05:37N 37°33' W 001°05'0 0.0
2018-Jun-06 05:25N 37°33' W 001°05'0 0.0
2018-Jun-06 03:43N 37°33' W 001°05'0 0.1
2018-Jun-06 03:19N 37°33' W 001°05'0 0.0
2018-Jun-06 02:55N 37°33' W 001°05'0 0.0
2018-Jun-06 02:25N 37°33' W 001°05'0 0.0
2018-Jun-06 01:55N 37°33' W 001°05'  

Dump ship's entire track history